Time;durP1;ratioP1;P1;durP2;ratioP2;P2;SDS_P1;SDS_P2;PMS_P1;PMS_P2;Temp;Humidity;BMP_temperature;BMP_pressure;BME280_temperature;BME280_humidity;BME280_pressure;Samples;Min_cycle;Max_cycle;Signal;HPM_P1;HPM_P2
2022/10/15 00:00:44;;;;;;;75.25;41.15;;;13.30;99.90;;;;;;4862301;29;20601;-88
2022/10/15 00:03:10;;;;;;;75.93;40.90;;;13.00;99.90;;;;;;4803818;29;20528;-88
2022/10/15 00:05:37;;;;;;;70.85;40.58;;;13.10;99.90;;;;;;4832775;29;20105;-88
2022/10/15 00:08:10;;;;;;;75.30;41.35;;;13.20;99.90;;;;;;4836436;29;20081;-88
2022/10/15 00:10:37;;;;;;;68.63;39.90;;;13.20;99.90;;;;;;4858297;29;20448;-89
2022/10/15 00:13:04;;;;;;;68.18;40.28;;;13.00;99.90;;;;;;4852752;29;20038;-89
2022/10/15 00:15:29;;;;;;;79.55;42.60;;;13.20;99.90;;;;;;4851903;29;20426;-88
2022/10/15 00:17:55;;;;;;;72.57;41.42;;;13.00;99.90;;;;;;4837325;29;20046;-89
2022/10/15 00:20:21;;;;;;;76.03;41.55;;;13.20;99.90;;;;;;4849890;29;20056;-88
2022/10/15 00:22:47;;;;;;;76.97;41.28;;;13.10;99.90;;;;;;4846248;29;20049;-87
2022/10/15 00:25:13;;;;;;;79.65;43.85;;;13.20;99.90;;;;;;4833066;29;20128;-87
2022/10/15 00:27:39;;;;;;;76.10;41.20;;;13.10;99.90;;;;;;4841329;29;20034;-88
2022/10/15 00:30:05;;;;;;;70.35;41.28;;;13.20;99.90;;;;;;4849633;29;20138;-87
2022/10/15 00:32:31;;;;;;;85.75;43.28;;;13.20;99.90;;;;;;4848959;29;20099;-87
2022/10/15 00:35:04;;;;;;;70.07;42.45;;;13.00;99.90;;;;;;4838139;29;20458;-89
2022/10/15 00:37:33;;;;;;;75.07;41.42;;;13.20;99.90;;;;;;4850805;29;20110;-87
2022/10/15 00:39:58;;;;;;;76.60;42.00;;;13.20;99.90;;;;;;4854669;29;20041;-88
2022/10/15 00:42:24;;;;;;;76.22;41.80;;;13.00;99.90;;;;;;4833840;29;20052;-88
2022/10/15 00:44:57;;;;;;;74.47;42.35;;;13.10;99.90;;;;;;4830640;29;20083;-88
2022/10/15 00:47:27;;;;;;;79.00;43.33;;;13.00;99.90;;;;;;4847565;29;20081;-87
2022/10/15 00:50:09;;;;;;;78.85;44.22;;;13.00;99.90;;;;;;4833812;29;20435;-87
2022/10/15 00:53:05;;;;;;;76.63;42.47;;;13.20;99.90;;;;;;4847434;29;20524;-88
2022/10/15 00:55:35;;;;;;;73.00;40.45;;;13.00;99.90;;;;;;4830175;29;20064;-89
2022/10/15 00:58:05;;;;;;;65.70;40.13;;;13.10;99.90;;;;;;4834840;29;20052;-88
2022/10/15 01:00:33;;;;;;;82.10;42.95;;;13.00;99.90;;;;;;4853397;29;20045;-88
2022/10/15 01:03:02;;;;;;;69.75;40.78;;;13.30;99.90;;;;;;4849619;29;20058;-87
2022/10/15 01:05:29;;;;;;;71.60;40.42;;;13.20;99.90;;;;;;4863152;29;20202;-88
2022/10/15 01:07:54;;;;;;;78.10;41.25;;;13.30;99.90;;;;;;4834318;29;20073;-87
2022/10/15 01:10:21;;;;;;;70.72;40.65;;;13.20;99.90;;;;;;4853208;29;20474;-88
2022/10/15 01:12:58;;;;;;;72.28;41.05;;;13.30;99.90;;;;;;4838237;29;20679;-89
2022/10/15 01:15:24;;;;;;;70.35;40.25;;;13.10;99.90;;;;;;4832335;29;20392;-88
2022/10/15 01:17:56;;;;;;;72.97;41.05;;;13.20;99.90;;;;;;4829961;29;20101;-87
2022/10/15 01:20:40;;;;;;;70.47;40.58;;;13.30;99.90;;;;;;4842735;29;20069;-87
2022/10/15 01:23:15;;;;;;;68.60;38.53;;;13.20;99.90;;;;;;4831160;29;20046;-87
2022/10/15 01:26:04;;;;;;;72.97;40.13;;;13.10;99.90;;;;;;4853215;29;20369;-89
2022/10/15 01:28:33;;;;;;;71.90;39.55;;;13.00;99.90;;;;;;4829278;29;20045;-87
2022/10/15 01:31:14;;;;;;;70.07;39.33;;;13.20;99.90;;;;;;4846036;29;20041;-89
2022/10/15 01:33:57;;;;;;;81.55;42.33;;;12.90;99.90;;;;;;4849488;29;20044;-87
2022/10/15 01:36:38;;;;;;;75.95;40.50;;;13.20;99.90;;;;;;4831346;29;20077;-88
2022/10/15 01:39:15;;;;;;;71.07;39.63;;;13.20;99.90;;;;;;4837156;29;20041;-89
2022/10/15 01:41:45;;;;;;;81.53;42.08;;;13.10;99.90;;;;;;4849543;29;20049;-88
2022/10/15 01:44:16;;;;;;;75.57;41.58;;;13.10;99.90;;;;;;4852021;29;20073;-88
2022/10/15 01:47:06;;;;;;;82.50;42.78;;;13.10;99.90;;;;;;4832128;29;20411;-88
2022/10/15 01:49:40;;;;;;;71.38;39.47;;;13.00;99.90;;;;;;4834377;29;20041;-88
2022/10/15 01:52:11;;;;;;;71.85;40.17;;;13.20;99.90;;;;;;4845140;29;20129;-88
2022/10/15 01:54:38;;;;;;;70.28;39.22;;;12.90;99.90;;;;;;4817589;29;20490;-88
2022/10/15 01:57:05;;;;;;;61.13;37.50;;;13.20;99.90;;;;;;4832281;29;20184;-86
2022/10/15 01:59:32;;;;;;;77.13;41.55;;;13.20;99.90;;;;;;4834197;29;20137;-88
2022/10/15 02:01:58;;;;;;;68.70;39.90;;;13.20;99.90;;;;;;4836606;29;20062;-87
2022/10/15 02:04:30;;;;;;;72.82;41.47;;;13.10;99.90;;;;;;4862598;29;20129;-87
2022/10/15 02:07:10;;;;;;;71.75;39.45;;;13.00;99.90;;;;;;4837776;29;20042;-88
2022/10/15 02:10:11;;;;;;;70.72;40.17;;;13.30;99.90;;;;;;4838172;29;20041;-87
2022/10/15 02:13:10;;;;;;;71.78;40.95;;;13.20;99.90;;;;;;4783091;29;20051;-87
2022/10/15 02:15:49;;;;;;;73.47;41.65;;;13.00;99.90;;;;;;4828365;29;20058;-87
2022/10/15 02:18:30;;;;;;;70.07;41.03;;;13.10;99.90;;;;;;4829218;29;20053;-88
2022/10/15 02:21:09;;;;;;;69.95;40.72;;;13.20;99.90;;;;;;4846793;29;20081;-88
2022/10/15 02:23:45;;;;;;;76.88;41.83;;;13.10;99.90;;;;;;4817835;29;20060;-88
2022/10/15 02:26:13;;;;;;;63.50;38.80;;;13.20;99.90;;;;;;4849754;29;20338;-87
2022/10/15 02:28:43;;;;;;;62.90;39.17;;;13.20;99.90;;;;;;4845412;29;20073;-88
2022/10/15 02:31:12;;;;;;;65.60;37.55;;;13.20;99.90;;;;;;4840759;29;20078;-88
2022/10/15 02:33:41;;;;;;;60.30;37.55;;;13.10;99.90;;;;;;4836109;29;20038;-88
2022/10/15 02:36:08;;;;;;;76.70;40.65;;;13.00;99.90;;;;;;4845711;29;20076;-87
2022/10/15 02:38:35;;;;;;;73.63;41.17;;;13.20;99.90;;;;;;4849114;29;20042;-88
2022/10/15 02:41:01;;;;;;;69.95;39.40;;;13.00;99.90;;;;;;4850666;29;20455;-88
2022/10/15 02:43:27;;;;;;;75.30;41.63;;;13.00;99.90;;;;;;4836275;29;20041;-87
2022/10/15 02:45:52;;;;;;;69.00;40.08;;;13.10;99.90;;;;;;4839702;29;20471;-87
2022/10/15 02:48:18;;;;;;;63.80;38.42;;;13.00;99.90;;;;;;4823371;29;20041;-87
2022/10/15 02:50:44;;;;;;;71.40;39.50;;;13.20;99.90;;;;;;4833861;29;20509;-88
2022/10/15 02:53:09;;;;;;;67.40;39.33;;;13.20;99.90;;;;;;4866517;29;20069;-87
2022/10/15 02:55:35;;;;;;;69.13;38.22;;;13.10;99.90;;;;;;4825693;29;20511;-88
2022/10/15 02:58:01;;;;;;;64.40;36.58;;;13.00;99.90;;;;;;4853772;29;20069;-88
2022/10/15 03:00:26;;;;;;;61.88;38.17;;;13.00;99.90;;;;;;4836029;29;20057;-87
2022/10/15 03:02:52;;;;;;;62.38;39.17;;;13.20;99.90;;;;;;4836301;29;20481;-87
2022/10/15 03:05:18;;;;;;;67.78;38.15;;;13.10;99.90;;;;;;4845602;29;20050;-87
2022/10/15 03:07:44;;;;;;;69.50;37.65;;;13.00;99.90;;;;;;4852531;29;20041;-86
2022/10/15 03:10:09;;;;;;;66.43;37.75;;;13.20;99.90;;;;;;4842260;29;20174;-87
2022/10/15 03:12:35;;;;;;;61.95;36.53;;;13.20;99.90;;;;;;4850942;29;20080;-88
2022/10/15 03:15:01;;;;;;;64.82;37.00;;;13.20;99.90;;;;;;4842728;29;20069;-87
2022/10/15 03:17:27;;;;;;;59.47;36.83;;;13.10;99.90;;;;;;4858744;29;20054;-87
2022/10/15 03:19:52;;;;;;;58.58;35.03;;;13.00;99.90;;;;;;4836475;29;20482;-87
2022/10/15 03:22:18;;;;;;;62.35;36.83;;;13.10;99.90;;;;;;4844037;29;20081;-87
2022/10/15 03:24:44;;;;;;;60.20;35.60;;;13.10;99.90;;;;;;4853338;29;20044;-87
2022/10/15 03:27:09;;;;;;;61.92;35.25;;;13.00;99.90;;;;;;4834472;29;20145;-87
2022/10/15 03:29:35;;;;;;;63.13;35.10;;;12.80;99.90;;;;;;4866362;29;20575;-87
2022/10/15 03:32:00;;;;;;;61.30;35.28;;;13.10;99.90;;;;;;4835602;29;20038;-87
2022/10/15 03:34:29;;;;;;;60.47;34.67;;;13.00;99.90;;;;;;4853663;29;20180;-88
2022/10/15 03:36:55;;;;;;;56.15;33.38;;;12.90;99.90;;;;;;4835708;29;20525;-87
2022/10/15 03:39:20;;;;;;;57.25;33.00;;;12.90;99.90;;;;;;4840947;29;20462;-87
2022/10/15 03:41:46;;;;;;;54.20;33.13;;;12.90;99.90;;;;;;4866918;29;20285;-87
2022/10/15 03:44:12;;;;;;;58.80;32.85;;;13.00;99.90;;;;;;4850955;29;20069;-86
2022/10/15 03:46:37;;;;;;;47.80;32.15;;;13.00;99.90;;;;;;4829894;29;20140;-88
2022/10/15 03:49:04;;;;;;;57.83;33.78;;;13.00;99.90;;;;;;4838368;29;20042;-87
2022/10/15 03:51:29;;;;;;;53.85;33.75;;;12.80;99.90;;;;;;4867749;29;20044;-87
2022/10/15 03:53:55;;;;;;;52.50;31.60;;;12.90;99.90;;;;;;4838462;29;20053;-86
2022/10/15 03:56:21;;;;;;;57.05;33.22;;;13.10;99.90;;;;;;4835817;29;20038;-87
2022/10/15 03:58:46;;;;;;;54.97;33.40;;;12.90;99.90;;;;;;4851143;29;20834;-86
2022/10/15 04:01:14;;;;;;;54.67;33.25;;;13.10;99.90;;;;;;4860734;29;20053;-87
2022/10/15 04:03:41;;;;;;;55.72;33.55;;;12.90;99.90;;;;;;4845003;29;20050;-87
2022/10/15 04:06:06;;;;;;;54.67;32.17;;;12.90;99.90;;;;;;4855095;29;20073;-87
2022/10/15 04:08:32;;;;;;;55.08;32.42;;;13.00;99.90;;;;;;4850823;29;20079;-87
2022/10/15 04:11:02;;;;;;;53.92;33.17;;;13.00;99.90;;;;;;4838365;29;20034;-87
2022/10/15 04:13:28;;;;;;;55.42;32.65;;;12.80;99.90;;;;;;4851106;29;20520;-86
2022/10/15 04:15:54;;;;;;;58.40;32.88;;;12.80;99.90;;;;;;4832128;29;20474;-87
2022/10/15 04:18:20;;;;;;;53.88;33.05;;;12.70;99.90;;;;;;4863295;29;20121;-87
2022/10/15 04:20:49;;;;;;;53.60;32.33;;;12.80;99.90;;;;;;4863818;29;20057;-87
2022/10/15 04:23:16;;;;;;;51.10;32.58;;;12.80;99.90;;;;;;4832858;29;20524;-87
2022/10/15 04:25:42;;;;;;;55.60;33.75;;;12.70;99.90;;;;;;4834364;29;20060;-87
2022/10/15 04:28:08;;;;;;;56.92;33.60;;;12.80;99.90;;;;;;4832432;29;20042;-87
2022/10/15 04:30:33;;;;;;;56.53;32.92;;;13.00;99.90;;;;;;4864149;29;20050;-87
2022/10/15 04:32:59;;;;;;;59.55;34.90;;;12.90;99.90;;;;;;4840748;29;20121;-86
2022/10/15 04:35:25;;;;;;;55.13;34.13;;;12.90;99.90;;;;;;4834298;29;20091;-87
2022/10/15 04:37:50;;;;;;;55.13;34.58;;;12.80;99.90;;;;;;4833579;29;20072;-87
2022/10/15 04:40:17;;;;;;;59.47;34.13;;;12.90;99.90;;;;;;4852039;29;20138;-87
2022/10/15 04:42:44;;;;;;;57.50;35.65;;;12.70;99.90;;;;;;4829469;29;20104;-87
2022/10/15 04:45:10;;;;;;;60.13;35.53;;;12.80;99.90;;;;;;4833054;29;20058;-87
2022/10/15 04:47:36;;;;;;;62.63;36.15;;;12.80;99.90;;;;;;4831207;29;20379;-87
2022/10/15 04:50:02;;;;;;;59.90;35.83;;;12.80;99.90;;;;;;4843705;29;20117;-87
2022/10/15 04:52:28;;;;;;;63.45;36.85;;;12.90;99.90;;;;;;4836205;29;20052;-87
2022/10/15 04:54:54;;;;;;;68.53;37.72;;;12.90;99.90;;;;;;4840190;29;20045;-87
2022/10/15 04:57:19;;;;;;;59.47;35.83;;;12.70;99.90;;;;;;4837679;29;20068;-86
2022/10/15 04:59:45;;;;;;;64.45;36.90;;;12.90;99.90;;;;;;4846004;29;20046;-86
2022/10/15 05:02:13;;;;;;;62.30;36.90;;;12.80;99.90;;;;;;4832785;29;20058;-87
2022/10/15 05:04:39;;;;;;;68.32;38.47;;;12.60;99.90;;;;;;4847498;29;20136;-86
2022/10/15 05:07:05;;;;;;;67.40;38.35;;;12.90;99.90;;;;;;4847268;29;20399;-86
2022/10/15 05:09:30;;;;;;;64.13;39.05;;;12.70;99.90;;;;;;4834537;29;20041;-87
2022/10/15 05:11:56;;;;;;;71.60;40.45;;;12.70;99.90;;;;;;4834447;29;20392;-87
2022/10/15 05:14:22;;;;;;;74.43;40.42;;;12.60;99.90;;;;;;4847809;29;20410;-86
2022/10/15 05:16:47;;;;;;;67.07;39.33;;;12.60;99.90;;;;;;4850346;29;20037;-87
2022/10/15 05:19:15;;;;;;;74.50;41.20;;;12.90;99.90;;;;;;4829599;29;20099;-87
2022/10/15 05:21:41;;;;;;;78.80;41.28;;;12.70;99.90;;;;;;4862600;29;20776;-87
2022/10/15 05:24:08;;;;;;;73.35;40.22;;;12.80;99.90;;;;;;4831776;29;20037;-87
2022/10/15 05:26:34;;;;;;;74.60;40.85;;;12.70;99.90;;;;;;4846471;29;20046;-86
2022/10/15 05:29:00;;;;;;;67.78;36.42;;;12.70;99.90;;;;;;4843730;29;20045;-86
2022/10/15 05:31:29;;;;;;;73.03;38.25;;;12.80;99.90;;;;;;4848589;29;20106;-87
2022/10/15 05:33:55;;;;;;;65.25;36.65;;;12.80;99.90;;;;;;4846904;29;20056;-85
2022/10/15 05:36:24;;;;;;;71.60;37.40;;;12.60;99.90;;;;;;4845759;29;20060;-86
2022/10/15 05:39:16;;;;;;;73.18;38.08;;;12.60;99.90;;;;;;4829821;29;20444;-87
2022/10/15 05:41:42;;;;;;;81.25;39.53;;;12.60;99.90;;;;;;4846165;29;20085;-87
2022/10/15 05:44:11;;;;;;;71.38;40.72;;;12.80;99.90;;;;;;4816695;29;20089;-88
2022/10/15 05:46:37;;;;;;;73.00;38.95;;;12.80;99.90;;;;;;4850314;29;20367;-88
2022/10/15 05:49:02;;;;;;;66.85;37.15;;;12.70;99.90;;;;;;4844332;29;20065;-86
2022/10/15 05:51:28;;;;;;;67.88;36.45;;;12.70;99.90;;;;;;4831221;29;20502;-87
2022/10/15 05:53:58;;;;;;;64.57;35.97;;;12.60;99.90;;;;;;4832515;29;20470;-87
2022/10/15 05:56:24;;;;;;;68.45;37.28;;;12.70;99.90;;;;;;4862357;29;20096;-87
2022/10/15 05:58:50;;;;;;;67.22;37.00;;;12.80;99.90;;;;;;4845875;29;20052;-85
2022/10/15 06:01:16;;;;;;;64.97;37.38;;;12.60;99.90;;;;;;4860476;29;20052;-87
2022/10/15 06:03:42;;;;;;;73.43;38.67;;;12.60;99.90;;;;;;4844678;29;20469;-86
2022/10/15 06:06:25;;;;;;;66.10;37.60;;;12.70;99.90;;;;;;4847581;29;20033;-87
2022/10/15 06:08:52;;;;;;;65.05;36.67;;;12.70;99.90;;;;;;4842016;29;20276;-88
2022/10/15 06:11:18;;;;;;;65.80;38.28;;;12.60;99.90;;;;;;4836333;29;20034;-87
2022/10/15 06:13:45;;;;;;;65.43;36.72;;;12.80;99.90;;;;;;4832531;29;20505;-86
2022/10/15 06:16:12;;;;;;;63.95;35.88;;;12.80;99.90;;;;;;4860645;29;20382;-87
2022/10/15 06:18:38;;;;;;;68.35;38.30;;;12.80;99.90;;;;;;4829895;29;20497;-87
2022/10/15 06:21:05;;;;;;;61.88;36.65;;;12.60;99.90;;;;;;4848648;29;20418;-87
2022/10/15 06:23:34;;;;;;;64.43;37.42;;;12.60;99.90;;;;;;4837547;29;20030;-87
2022/10/15 06:26:05;;;;;;;67.07;36.55;;;12.90;99.90;;;;;;4864374;29;20042;-87
2022/10/15 06:28:31;;;;;;;61.17;34.80;;;12.70;99.90;;;;;;4847785;29;20087;-87
2022/10/15 06:30:58;;;;;;;68.05;38.45;;;12.80;99.90;;;;;;4847695;29;20042;-87
2022/10/15 06:33:28;;;;;;;69.50;37.50;;;12.90;99.90;;;;;;4869942;29;20046;-87
2022/10/15 06:35:55;;;;;;;70.50;38.30;;;12.70;99.90;;;;;;4831990;29;20042;-87
2022/10/15 06:38:20;;;;;;;70.40;36.90;;;12.90;99.90;;;;;;4850531;29;20049;-88
2022/10/15 06:40:46;;;;;;;69.53;39.63;;;12.70;99.90;;;;;;4855074;29;20045;-86
2022/10/15 06:43:12;;;;;;;69.93;37.17;;;12.80;99.90;;;;;;4832331;29;20049;-87
2022/10/15 06:45:43;;;;;;;69.25;38.05;;;12.80;99.90;;;;;;4845287;29;20160;-87
2022/10/15 06:48:10;;;;;;;73.32;38.65;;;12.70;99.90;;;;;;4844525;29;20130;-87
2022/10/15 06:50:37;;;;;;;69.35;38.03;;;13.10;99.90;;;;;;4833517;29;20104;-87
2022/10/15 06:53:04;;;;;;;68.07;37.38;;;13.00;99.90;;;;;;4837607;29;20451;-87
2022/10/15 06:55:29;;;;;;;69.30;37.22;;;13.10;99.90;;;;;;4831064;29;20092;-88
2022/10/15 06:57:59;;;;;;;69.80;38.53;;;13.10;99.90;;;;;;4845482;29;20073;-87
2022/10/15 07:00:25;;;;;;;70.40;37.17;;;13.20;99.90;;;;;;4833042;29;20048;-86
2022/10/15 07:02:51;;;;;;;65.15;37.25;;;13.10;99.90;;;;;;4832133;29;20070;-87
2022/10/15 07:05:18;;;;;;;67.97;37.30;;;13.30;99.90;;;;;;4849216;29;20528;-87
2022/10/15 07:07:53;;;;;;;73.15;37.50;;;13.00;99.90;;;;;;4831735;29;20541;-87
2022/10/15 07:10:20;;;;;;;71.13;37.40;;;13.20;99.90;;;;;;4832609;29;20343;-86
2022/10/15 07:12:45;;;;;;;68.70;36.70;;;13.30;99.90;;;;;;4847870;29;20042;-87
2022/10/15 07:15:11;;;;;;;71.38;37.08;;;13.10;99.90;;;;;;4846761;29;20098;-87
2022/10/15 07:17:38;;;;;;;65.82;37.75;;;13.40;99.90;;;;;;4836888;29;20520;-88
2022/10/15 07:20:07;;;;;;;64.35;37.45;;;13.40;99.90;;;;;;4844587;29;20409;-87
2022/10/15 07:22:32;;;;;;;64.13;36.15;;;13.20;99.90;;;;;;4842261;29;20487;-87
2022/10/15 07:24:58;;;;;;;60.70;36.47;;;13.50;99.90;;;;;;4831606;29;20110;-87
2022/10/15 07:27:26;;;;;;;64.68;36.15;;;13.30;99.90;;;;;;4846363;29;20365;-87
2022/10/15 07:29:52;;;;;;;59.28;35.40;;;13.30;99.90;;;;;;4842432;29;20478;-87
2022/10/15 07:32:18;;;;;;;60.03;34.63;;;13.50;99.90;;;;;;4837208;29;20084;-87
2022/10/15 07:34:43;;;;;;;59.80;34.92;;;13.50;99.90;;;;;;4838464;29;20074;-87
2022/10/15 07:37:09;;;;;;;61.15;35.78;;;13.60;99.90;;;;;;4815445;29;20045;-87
2022/10/15 07:39:35;;;;;;;63.35;36.17;;;13.80;99.90;;;;;;4861813;29;20049;-86
2022/10/15 07:42:00;;;;;;;58.65;34.05;;;13.70;99.90;;;;;;4848252;29;20054;-87
2022/10/15 07:44:26;;;;;;;56.38;33.80;;;13.60;99.90;;;;;;4861559;29;20258;-87
2022/10/15 07:46:54;;;;;;;57.58;34.85;;;13.80;99.90;;;;;;4830187;29;20102;-86
2022/10/15 07:49:20;;;;;;;54.53;33.08;;;13.80;99.90;;;;;;4833506;29;20046;-87
2022/10/15 07:51:46;;;;;;;53.63;33.47;;;13.90;99.90;;;;;;4840586;29;20282;-87
2022/10/15 07:54:14;;;;;;;56.70;34.63;;;14.00;99.90;;;;;;4848725;29;20897;-87
2022/10/15 07:56:40;;;;;;;55.58;32.50;;;13.90;99.90;;;;;;4839071;29;20064;-87
2022/10/15 07:59:07;;;;;;;58.70;34.40;;;13.70;99.90;;;;;;4860293;29;20050;-86
2022/10/15 08:01:33;;;;;;;56.05;32.13;;;13.90;99.90;;;;;;4828639;29;20211;-87
2022/10/15 08:03:58;;;;;;;53.58;31.05;;;14.00;99.90;;;;;;4844018;29;20053;-86
2022/10/15 08:06:24;;;;;;;54.97;30.60;;;13.70;99.90;;;;;;4821486;29;20382;-87
2022/10/15 08:08:50;;;;;;;53.42;30.13;;;14.00;99.90;;;;;;4836601;29;20875;-85
2022/10/15 08:11:16;;;;;;;53.03;31.20;;;13.80;99.90;;;;;;4837873;29;20121;-86
2022/10/15 08:13:43;;;;;;;52.65;30.58;;;14.20;99.90;;;;;;4851599;29;20049;-86
2022/10/15 08:16:15;;;;;;;49.83;30.45;;;14.00;99.90;;;;;;4856454;29;20037;-86
2022/10/15 08:18:41;;;;;;;51.47;30.00;;;14.40;99.90;;;;;;4822503;29;20117;-86
2022/10/15 08:21:11;;;;;;;48.83;30.98;;;14.50;99.90;;;;;;4842458;29;20455;-86
2022/10/15 08:23:37;;;;;;;52.35;29.77;;;14.30;99.90;;;;;;4833866;29;20493;-86
2022/10/15 08:26:03;;;;;;;47.15;28.70;;;14.40;99.90;;;;;;4853620;29;20077;-87
2022/10/15 08:28:30;;;;;;;47.13;30.38;;;14.30;99.90;;;;;;4850475;29;20033;-86
2022/10/15 08:30:57;;;;;;;50.38;29.65;;;14.20;99.90;;;;;;4832304;29;20079;-86
2022/10/15 08:33:29;;;;;;;46.63;30.38;;;14.30;99.90;;;;;;4820949;29;20038;-86
2022/10/15 08:35:55;;;;;;;48.17;31.05;;;14.70;99.90;;;;;;4817018;29;20052;-87
2022/10/15 08:38:21;;;;;;;46.97;30.83;;;14.70;99.90;;;;;;4839244;29;20038;-87
2022/10/15 08:40:55;;;;;;;49.92;31.27;;;14.60;99.90;;;;;;4838516;29;20406;-87
2022/10/15 08:43:28;;;;;;;52.83;32.55;;;14.80;99.90;;;;;;4830728;29;20569;-87
2022/10/15 08:45:59;;;;;;;50.15;30.77;;;15.00;99.90;;;;;;4832453;29;20049;-87
2022/10/15 08:48:55;;;;;;;49.75;31.45;;;14.80;99.90;;;;;;4849296;29;20419;-86
2022/10/15 08:51:25;;;;;;;49.30;31.48;;;15.10;99.90;;;;;;4838513;29;20412;-87
2022/10/15 08:54:04;;;;;;;46.72;30.20;;;14.90;99.90;;;;;;4839508;29;20045;-87
2022/10/15 08:56:35;;;;;;;45.45;30.05;;;14.80;99.90;;;;;;4850222;29;20341;-87
2022/10/15 08:59:25;;;;;;;52.40;31.77;;;14.90;99.90;;;;;;4831287;29;20414;-87
2022/10/15 09:02:32;;;;;;;47.63;31.23;;;14.80;99.90;;;;;;4833944;29;20077;-86
2022/10/15 09:05:37;;;;;;;52.83;32.45;;;15.10;99.90;;;;;;4849447;29;20466;-87
2022/10/15 09:08:21;;;;;;;51.97;32.92;;;14.80;99.90;;;;;;4800698;29;20042;-87
2022/10/15 09:11:05;;;;;;;45.22;31.65;;;14.90;99.90;;;;;;4839121;29;20346;-87
2022/10/15 09:13:36;;;;;;;50.58;33.75;;;14.90;99.90;;;;;;4853143;29;20033;-87
2022/10/15 09:16:13;;;;;;;43.58;29.60;;;14.90;99.90;;;;;;4836260;29;20890;-87
2022/10/15 09:18:46;;;;;;;46.42;31.45;;;14.50;99.90;;;;;;4836478;29;20041;-88
2022/10/15 09:21:13;;;;;;;46.60;30.08;;;14.70;99.90;;;;;;4832711;29;20042;-86
2022/10/15 09:23:40;;;;;;;43.35;28.55;;;14.60;99.90;;;;;;4857817;29;20054;-86
2022/10/15 09:26:30;;;;;;;43.30;28.60;;;14.50;99.90;;;;;;4851830;29;20053;-87
2022/10/15 09:29:20;;;;;;;42.65;27.95;;;14.70;99.90;;;;;;4837458;29;20351;-87
2022/10/15 09:32:05;;;;;;;42.08;29.08;;;14.50;99.90;;;;;;4839634;29;20054;-87
2022/10/15 09:34:35;;;;;;;45.73;29.07;;;14.50;99.90;;;;;;4844084;29;20379;-85
2022/10/15 09:37:10;;;;;;;42.85;28.85;;;14.50;99.90;;;;;;4817422;29;20362;-86
2022/10/15 09:39:56;;;;;;;39.33;27.40;;;14.50;99.90;;;;;;4818577;29;20307;-86
2022/10/15 09:42:29;;;;;;;40.08;27.85;;;14.50;99.90;;;;;;4817140;29;20550;-87
2022/10/15 09:44:59;;;;;;;40.90;27.88;;;14.50;99.90;;;;;;4850310;29;20394;-86
2022/10/15 09:47:33;;;;;;;41.45;27.42;;;14.50;99.90;;;;;;4854520;29;20042;-86
2022/10/15 09:50:00;;;;;;;40.85;27.65;;;14.60;99.90;;;;;;4849151;29;20034;-86
2022/10/15 09:52:47;;;;;;;44.25;28.27;;;14.60;99.90;;;;;;4860860;29;20046;-87
2022/10/15 09:55:34;;;;;;;43.65;29.02;;;14.60;99.90;;;;;;4844558;29;20042;-87
2022/10/15 09:58:27;;;;;;;44.70;27.50;;;14.50;99.90;;;;;;4837361;29;20064;-86
2022/10/15 10:01:00;;;;;;;43.65;25.73;;;14.40;99.90;;;;;;4833434;29;20049;-86
2022/10/15 10:03:29;;;;;;;42.03;25.42;;;14.40;99.90;;;;;;4829464;29;20056;-87
2022/10/15 10:06:06;;;;;;;39.35;24.85;;;14.10;99.90;;;;;;4827439;29;20054;-86
2022/10/15 10:08:39;;;;;;;43.90;24.55;;;14.10;99.90;;;;;;4852067;29;20034;-86
2022/10/15 10:11:09;;;;;;;38.97;23.55;;;14.10;99.90;;;;;;4847988;29;20572;-86
2022/10/15 10:13:44;;;;;;;39.95;24.30;;;14.30;99.90;;;;;;4843822;29;20094;-86
2022/10/15 10:16:12;;;;;;;43.33;25.42;;;14.10;99.90;;;;;;4860727;29;20081;-86
2022/10/15 10:18:38;;;;;;;40.50;23.90;;;14.30;99.90;;;;;;4861177;29;20092;-86
2022/10/15 10:21:19;;;;;;;40.08;23.08;;;14.50;99.90;;;;;;4820175;29;20466;-86
2022/10/15 10:23:45;;;;;;;37.33;22.55;;;14.30;99.90;;;;;;4847150;29;20041;-86
2022/10/15 10:26:14;;;;;;;36.60;22.52;;;14.50;99.90;;;;;;4800316;29;20085;-87
2022/10/15 10:28:39;;;;;;;34.20;21.63;;;14.70;99.90;;;;;;4865826;29;20309;-86
2022/10/15 10:31:07;;;;;;;33.00;21.30;;;14.30;99.90;;;;;;4868756;29;20050;-85
2022/10/15 10:33:41;;;;;;;36.03;21.23;;;14.50;99.90;;;;;;4821210;29;20764;-86
2022/10/15 10:36:29;;;;;;;33.90;20.33;;;14.50;99.90;;;;;;4825090;29;20053;-86
2022/10/15 10:39:13;;;;;;;29.77;18.67;;;14.80;99.90;;;;;;4835101;29;20041;-86
2022/10/15 10:41:55;;;;;;;32.28;18.55;;;14.70;99.90;;;;;;4847636;29;20046;-86
2022/10/15 10:44:37;;;;;;;27.40;17.48;;;14.90;99.90;;;;;;4821506;29;20054;-86
2022/10/15 10:47:11;;;;;;;25.88;18.25;;;15.10;99.90;;;;;;4834939;29;20056;-86
2022/10/15 10:49:43;;;;;;;27.17;16.70;;;14.90;99.90;;;;;;4852757;29;20037;-89
2022/10/15 10:52:35;;;;;;;24.60;16.90;;;15.20;99.90;;;;;;4816805;29;20446;-91
2022/10/15 10:55:16;;;;;;;24.15;16.27;;;15.40;99.90;;;;;;4846337;29;20052;-90
2022/10/15 10:57:51;;;;;;;22.58;16.50;;;15.50;99.90;;;;;;4842365;29;20498;-90
2022/10/15 11:00:25;;;;;;;22.42;15.88;;;15.60;99.90;;;;;;4835982;29;20098;-90
2022/10/15 11:02:51;;;;;;;23.63;16.27;;;15.40;99.90;;;;;;4835626;29;20058;-89
2022/10/15 11:05:28;;;;;;;23.35;16.00;;;15.40;99.90;;;;;;4837420;29;20046;-90
2022/10/15 11:08:16;;;;;;;22.27;15.70;;;15.60;99.90;;;;;;4851825;29;20050;-89
2022/10/15 11:11:19;;;;;;;23.98;16.35;;;15.80;99.90;;;;;;4829242;29;20046;-90
2022/10/15 11:14:25;;;;;;;22.08;15.55;;;16.20;99.90;;;;;;4865179;29;20173;-90
2022/10/15 11:17:15;;;;;;;25.35;16.27;;;16.40;99.90;;;;;;4817935;29;20452;-90
2022/10/15 11:19:50;;;;;;;25.52;15.88;;;16.30;99.90;;;;;;4853945;29;20041;-91
2022/10/15 11:22:53;;;;;;;22.88;15.77;;;16.20;99.90;;;;;;4835600;29;20080;-90
2022/10/15 11:25:41;;;;;;;22.40;15.80;;;16.00;99.90;;;;;;4840647;29;20050;-90
2022/10/15 11:28:48;;;;;;;23.20;16.85;;;15.90;99.90;;;;;;4841167;29;20053;-89
2022/10/15 11:31:22;;;;;;;23.10;15.65;;;15.80;99.90;;;;;;4823335;29;20054;-90
2022/10/15 11:34:08;;;;;;;24.58;16.38;;;15.70;99.90;;;;;;4841955;29;20048;-90
2022/10/15 11:36:46;;;;;;;26.33;15.48;;;15.90;99.90;;;;;;4851423;29;20068;-89
2022/10/15 11:39:27;;;;;;;21.42;14.48;;;15.80;99.90;;;;;;4844075;29;20050;-91
2022/10/15 11:42:14;;;;;;;19.10;13.27;;;15.80;99.90;;;;;;4837295;29;20094;-90
2022/10/15 11:45:02;;;;;;;22.80;13.95;;;15.90;99.90;;;;;;4840859;29;20045;-90
2022/10/15 11:47:49;;;;;;;25.65;13.85;;;15.80;99.90;;;;;;4837752;29;20045;-91
2022/10/15 11:50:40;;;;;;;20.73;14.07;;;15.80;99.90;;;;;;4845537;29;20391;-90
2022/10/15 11:53:27;;;;;;;47.95;23.38;;;15.90;99.90;;;;;;4808170;29;20047;-90
2022/10/15 11:56:13;;;;;;;20.85;14.25;;;15.90;99.90;;;;;;4850177;29;20045;-89
2022/10/15 11:59:14;;;;;;;52.45;25.30;;;15.90;99.90;;;;;;4843598;29;20190;-89
2022/10/15 12:01:47;;;;;;;20.70;13.05;;;16.30;99.90;;;;;;4850964;29;20060;-90
2022/10/15 12:04:36;;;;;;;20.00;12.82;;;15.90;99.90;;;;;;4854118;29;20041;-89
2022/10/15 12:07:05;;;;;;;22.30;13.23;;;16.20;99.90;;;;;;4862766;29;20172;-89
2022/10/15 12:09:36;;;;;;;17.05;12.00;;;16.10;99.90;;;;;;4865075;29;20065;-89
2022/10/15 12:12:27;;;;;;;17.50;12.55;;;16.00;99.90;;;;;;4866509;29;20088;-86
2022/10/15 12:15:14;;;;;;;18.63;13.07;;;16.10;99.90;;;;;;4819060;29;20402;-86
2022/10/15 12:17:51;;;;;;;19.83;13.35;;;16.40;99.90;;;;;;4849097;29;20056;-86
2022/10/15 12:20:20;;;;;;;18.80;13.30;;;16.20;99.90;;;;;;4836396;29;20253;-86
2022/10/15 12:22:45;;;;;;;19.02;13.23;;;16.50;99.90;;;;;;4863726;29;20041;-86
2022/10/15 12:25:33;;;;;;;17.85;12.85;;;16.70;99.90;;;;;;4838714;29;20320;-86
2022/10/15 12:28:14;;;;;;;17.63;12.18;;;16.50;99.90;;;;;;4864981;29;20390;-85
2022/10/15 12:30:48;;;;;;;16.40;12.32;;;16.40;99.90;;;;;;4823404;29;20118;-86
2022/10/15 12:33:46;;;;;;;18.15;13.07;;;16.60;99.90;;;;;;4808275;29;20045;-86
2022/10/15 12:36:28;;;;;;;18.30;13.85;;;16.30;99.90;;;;;;4822399;29;20136;-85
2022/10/15 12:39:22;;;;;;;17.52;13.63;;;16.30;99.90;;;;;;4831186;29;20548;-86
2022/10/15 12:41:49;;;;;;;21.80;13.40;;;16.30;99.90;;;;;;4833702;29;20060;-86
2022/10/15 12:44:21;;;;;;;18.67;14.38;;;16.00;99.90;;;;;;4864501;29;20506;-86
2022/10/15 12:46:47;;;;;;;22.13;14.13;;;16.30;99.90;;;;;;4847525;29;20038;-87
2022/10/15 12:49:25;;;;;;;17.90;14.10;;;16.30;99.90;;;;;;4805920;29;20515;-86
2022/10/15 12:51:51;;;;;;;18.85;14.25;;;16.30;99.90;;;;;;4837563;29;20037;-86